Flight Track Log - Related Links

Times and Time Zones

All times are in EDT time to prevent confusion due to time zone crossing. See the EJA831 flight status page for this flight to view local times or setup timezone preferences in your user account.

Time Position Orientation Groundspeed Altitude Reporting Facility
EDT Latitude Longitude Course Direction KTS MPH feet Rate Location/Type
Tue 09:32:45 PM 41.0117 -83.5828 77° East 212 244 4,900  Level Cleveland Center
Tue 09:33:45 PM 41.0303 -83.5036 73° East 249 287 8,200 3,100 Climbing Cleveland Center
Tue 09:34:45 PM 41.0558 -83.4028 71° East 268 308 11,100 3,100 Climbing Cleveland Center
Tue 09:35:45 PM 41.0814 -83.2992 72° East 283 326 14,400 3,000 Climbing Cleveland Center
Tue 09:36:45 PM 41.1047 -83.1928 74° East 289 333 17,100 2,550 Climbing Cleveland Center
Tue 09:37:00 PM 41.1606 -82.9764 73° East  Level FlightAware Approximate
Tue 09:37:45 PM 41.1364 -83.0756 70° East 316 364 19,500  Level Cleveland Center
Tue 09:38:00 PM 41.1960 -82.8407 77° East  Level FlightAware Approximate
Tue 09:38:45 PM 41.1661 -82.9525 72° East 330 380 22,100  Level Cleveland Center
Tue 09:39:45 PM 41.1958 -82.8294 72° East 342 394 24,100 1,950 Climbing Cleveland Center
Tue 09:40:45 PM 41.2192 -82.6978 77° East 359 413 26,000 1,950 Climbing Cleveland Center
Tue 09:41:45 PM 41.2425 -82.5575 77° East 372 428 28,000 2,250 Climbing Cleveland Center
Tue 09:42:45 PM 41.2636 -82.4228 78° East 372 428 30,500 2,450 Climbing Cleveland Center
Tue 09:43:45 PM 41.2822 -82.2936 79° East 372 428 32,900 1,250 Climbing Cleveland Center
Tue 09:44:45 PM 41.3028 -82.1586 78° East 367 422 33,000 50 Climbing Cleveland Center
Tue 09:45:45 PM 41.3278 -82.0044 78° East 396 456 33,000  Level Cleveland Center
Tue 09:46:45 PM 41.3506 -81.8500 79° East 412 474 33,000  Level Cleveland Center
Tue 09:47:45 PM 41.3750 -81.6956 78° East 417 480 33,000  Level Cleveland Center
Tue 09:48:45 PM 41.3953 -81.5381 80° East 422 486 33,000  Level Cleveland Center
Tue 09:49:45 PM 41.4172 -81.3861 79° East 428 493 33,000  Level Cleveland Center
Tue 09:50:45 PM 41.4369 -81.2311 80° East 428 493 33,000  Level Cleveland Center
Tue 09:51:45 PM 41.4586 -81.0792 79° East 428 493 33,000  Level Cleveland Center
Tue 09:52:45 PM 41.4822 -80.9242 78° East 428 493 33,000  Level Cleveland Center
Tue 09:53:45 PM 41.5033 -80.7661 80° East 433 498 33,000  Level Cleveland Center
Tue 09:54:45 PM 41.5222 -80.6275 80° East 427 491 33,000  Level Cleveland Center
Tue 09:55:45 PM 41.5431 -80.4722 80° East 427 491 33,000  Level Cleveland Center
Tue 09:56:45 PM 41.5658 -80.3194 79° East 422 486 33,000  Level Cleveland Center
Tue 09:57:45 PM 41.5881 -80.1639 79° East 422 486 33,000  Level Cleveland Center
Tue 09:58:45 PM 41.6083 -80.0056 80° East 427 491 33,000  Level Cleveland Center
Tue 09:59:45 PM 41.6242 -79.8525 82° East 427 491 33,000  Level Cleveland Center
Tue 10:00:45 PM 41.6292 -79.6914 88° East 427 491 33,000  Level Cleveland Center
Tue 10:01:45 PM 41.6342 -79.5303 88° East 427 491 33,000  Level Cleveland Center
Tue 10:02:45 PM 41.6389 -79.3689 88° East 427 491 33,000  Level Cleveland Center
Tue 10:03:45 PM 41.6433 -79.2078 88° East 427 491 33,000  Level Cleveland Center
Tue 10:04:45 PM 41.6475 -79.0464 88° East 427 491 33,000  Level Cleveland Center
Tue 10:05:45 PM 41.6514 -78.8853 88° East 427 491 33,000  Level Cleveland Center
Tue 10:06:45 PM 41.6553 -78.7239 88° East 427 491 33,000  Level Cleveland Center
Tue 10:07:45 PM 41.6586 -78.5597 88° East 427 491 33,000  Level Cleveland Center
Tue 10:08:45 PM 41.6619 -78.3958 88° East 427 491 33,000  Level Cleveland Center
Tue 10:09:45 PM 41.6650 -78.2344 88° East 432 497 33,000  Level Cleveland Center
Tue 10:10:52 PM 41.6683 -78.0606 88° East 430 495 33,000  Level New York Center
Tue 10:12:00 PM 41.6681 -77.9051 90° East  Level FlightAware Approximate
Tue 10:12:52 PM 41.6731 -77.7389 90° East 430 495 33,000  Level New York Center
Tue 10:13:53 PM 41.6742 -77.5806 89° East 430 495 33,000  Level New York Center
Tue 10:14:52 PM 41.6767 -77.4225 89° East 430 495 33,000 -555 Level New York Center
Tue 10:15:52 PM 41.6789 -77.2700 89° East 419 482 31,900 -1,418 Descending New York Center
Tue 10:17:00 PM 41.6568 -77.1125 109° East  Level FlightAware Approximate
Tue 10:17:54 PM 41.6269 -76.9567 109° East 428 493 28,700  Level New York Center
Tue 10:18:52 PM 41.5847 -76.8058 110° East 433 498 27,100 -1,513 Descending New York Center
Tue 10:19:53 PM 41.5431 -76.6414 109° East 433 498 25,700 -1,525 Descending New York Center
Tue 10:20:54 PM 41.4981 -76.4961 112° Southeast 428 493 24,000 -843 Descending New York Center
Tue 10:21:54 PM 41.4592 -76.3489 109° East 422 486 24,000  Level New York Center
Tue 10:22:53 PM 41.4203 -76.1989 109° East 422 486 24,000 -203 Level New York Center
Tue 10:23:52 PM 41.3767 -76.0544 112° Southeast 422 486 23,600 -1,109 Descending New York Center
Tue 10:24:52 PM 41.3406 -75.9328 112° Southeast 416 479 21,800 -2,017 Descending New York Center
Tue 10:25:51 PM 41.3006 -75.7972 111° Southeast 399 459 19,600 -2,200 Descending New York Center
Tue 10:26:52 PM 41.2606 -75.6533 110° East 393 452 17,400 -2,066 Descending New York Center
Tue 10:27:53 PM 41.2253 -75.5489 114° Southeast 356 410 15,400 -1,966 Descending New York Center
Tue 10:28:51 PM 41.1844 -75.4244 114° Southeast 356 410 13,500 -2,050 Descending New York Center
Tue 10:29:53 PM 41.1414 -75.2978 114° Southeast 343 395 11,300 -1,820 Descending New York Center
Tue 10:30:53 PM 41.1078 -75.1964 114° Southeast 326 375 9,800 -1,488 Descending New York Center
Tue 10:31:54 PM 41.0758 -75.1033 114° Southeast 287 330 8,300 -1,488 Descending New York Center
Tue 10:32:54 PM 41.0497 -75.0219 113° Southeast 269 310 6,800 -1,179 Descending New York Center
Tue 10:33:51 PM 41.0489 -74.9228 91° East 247 284 6,000 -407 Descending New York Center
Tue 10:34:52 PM 41.0503 -74.8294 89° East 247 284 6,000 -197 Level New York Center
Tue 10:35:53 PM 41.0428 -74.7436 97° East 252 290 5,600 -942 Descending New York Center
Tue 10:36:53 PM 41.0294 -74.6439 100° East 257 296 4,100 -793 Descending New York Center
Tue 10:37:54 PM 41.0214 -74.5692 98° East 244 281 4,000 -298 Descending New York Center
Tue 10:38:54 PM 41.0097 -74.4750 99° East 238 274 3,500 -500 Descending New York Center
Tue 10:39:54 PM 40.9997 -74.3947 99° East 238 274 3,000 -244 Descending New York Center
Tue 10:40:57 PM 40.9667 -74.3000 115° Southeast 230 265 3,000 -488 Level New York TRACON
Tue 10:41:57 PM 40.9167 -74.3000 180° South 199 229 2,000 -500 Descending New York TRACON
Tue 10:42:57 PM 40.8833 -74.3333 217° Southwest 165 190 2,000 -421 Level New York TRACON
Tue 10:43:51 PM 40.8500 -74.3667 217° Southwest 148 170 1,200 -500 Descending New York TRACON
Tue 10:44:57 PM 40.8167 -74.4000 217° Southwest 131 151 1,000 5,538 Descending New York TRACON
Tue 10:46:53 PM 40.7394 -74.4603 211° Southwest 158 182 18,000 8,793 Climbing New York Center

Login

Don't have an account? Register now (free) for customized features, flight alerts, and more!